Norfolk, Virginia
Traffic Map
Current Weather Conditions
Norfolk, Virginia
Overcast
Overcast
20°
Feels Like: 20°
Wind Chill: 20° Ceiling: 10000
Heat Index: 20° Visibility: 10mi
Dew Point: 16° Wind: 0mph
Humidity: 76% Direction: ° ()
Pressure: 30.16in Gusts: 0mph
Raw Report DataKORF 191051Z AUTO 00000KT 10SM OVC100 20/16 A3016 RMK AO2 SLP211 T02000156 TSNO
Traffic Incident Summary
Active as of:
Severity:
Category:
InformationThere was an issue retrieving the traffic information for this location. Please try a different location or try again shortly.
Advertisements
Track Severe Weather on mobile